sensor_id;sensor_type;location;lat;lon;timestamp;pressure;altitude;pressure_sealevel;temperature;humidity
7105;BME280;3594;42.152;24.714;2023-07-13T00:02:07;62206.38;;;24.37;nan
7105;BME280;3594;42.152;24.714;2023-07-13T00:04:32;62094.28;;;24.51;nan
7105;BME280;3594;42.152;24.714;2023-07-13T00:06:58;62155.31;;;24.22;nan
7105;BME280;3594;42.152;24.714;2023-07-13T00:09:23;62106.66;;;24.44;nan
7105;BME280;3594;42.152;24.714;2023-07-13T00:11:55;62035.25;;;24.06;nan
7105;BME280;3594;42.152;24.714;2023-07-13T00:14:21;62029.56;;;24.01;nan
7105;BME280;3594;42.152;24.714;2023-07-13T00:16:47;62041.72;;;24.14;nan
7105;BME280;3594;42.152;24.714;2023-07-13T00:19:13;62086.19;;;24.26;nan
7105;BME280;3594;42.152;24.714;2023-07-13T00:21:40;61931.81;;;23.88;nan
7105;BME280;3594;42.152;24.714;2023-07-13T00:24:08;62016.75;;;24.15;nan
7105;BME280;3594;42.152;24.714;2023-07-13T00:26:34;62009.09;;;23.83;nan
7105;BME280;3594;42.152;24.714;2023-07-13T00:28:59;62121.06;;;23.52;nan
7105;BME280;3594;42.152;24.714;2023-07-13T00:31:25;61984.72;;;23.96;nan
7105;BME280;3594;42.152;24.714;2023-07-13T00:33:50;62032.41;;;24.03;nan
7105;BME280;3594;42.152;24.714;2023-07-13T00:36:16;62311.69;;;23.92;nan
7105;BME280;3594;42.152;24.714;2023-07-13T00:38:42;62119.59;;;24.09;nan
7105;BME280;3594;42.152;24.714;2023-07-13T00:41:08;62025.03;;;24.08;nan
7105;BME280;3594;42.152;24.714;2023-07-13T00:43:34;62062.59;;;24.02;nan
7105;BME280;3594;42.152;24.714;2023-07-13T00:48:32;62035.44;;;23.97;nan
7105;BME280;3594;42.152;24.714;2023-07-13T00:51:00;61994.47;;;23.88;nan
7105;BME280;3594;42.152;24.714;2023-07-13T00:53:28;62022.13;;;23.83;nan
7105;BME280;3594;42.152;24.714;2023-07-13T00:55:55;61997.38;;;23.74;nan
7105;BME280;3594;42.152;24.714;2023-07-13T00:58:22;62121.22;;;23.87;nan
7105;BME280;3594;42.152;24.714;2023-07-13T01:00:48;62147.00;;;23.89;nan
7105;BME280;3594;42.152;24.714;2023-07-13T01:03:14;61994.34;;;23.93;nan
7105;BME280;3594;42.152;24.714;2023-07-13T01:05:40;62065.53;;;24.00;nan
7105;BME280;3594;42.152;24.714;2023-07-13T01:08:06;62005.09;;;23.79;nan
7105;BME280;3594;42.152;24.714;2023-07-13T01:10:38;61993.16;;;23.68;nan
7105;BME280;3594;42.152;24.714;2023-07-13T01:13:08;62038.50;;;23.90;nan
7105;BME280;3594;42.152;24.714;2023-07-13T01:15:42;61980.31;;;23.59;nan
7105;BME280;3594;42.152;24.714;2023-07-13T01:18:15;61956.16;;;23.52;nan
7105;BME280;3594;42.152;24.714;2023-07-13T01:20:41;62070.97;;;23.63;nan
7105;BME280;3594;42.152;24.714;2023-07-13T01:23:09;62260.94;;;23.58;nan
7105;BME280;3594;42.152;24.714;2023-07-13T01:25:36;62071.25;;;23.50;nan
7105;BME280;3594;42.152;24.714;2023-07-13T01:28:03;62096.22;;;23.49;nan
7105;BME280;3594;42.152;24.714;2023-07-13T01:30:29;61978.44;;;23.39;nan
7105;BME280;3594;42.152;24.714;2023-07-13T01:32:56;61971.50;;;23.65;nan
7105;BME280;3594;42.152;24.714;2023-07-13T01:35:21;61984.38;;;23.47;nan
7105;BME280;3594;42.152;24.714;2023-07-13T01:37:47;62122.63;;;23.74;nan
7105;BME280;3594;42.152;24.714;2023-07-13T01:40:12;62125.16;;;23.79;nan
7105;BME280;3594;42.152;24.714;2023-07-13T01:42:38;62073.44;;;23.56;nan
7105;BME280;3594;42.152;24.714;2023-07-13T01:45:04;62106.56;;;23.37;nan
7105;BME280;3594;42.152;24.714;2023-07-13T01:47:29;62045.31;;;23.13;nan
7105;BME280;3594;42.152;24.714;2023-07-13T01:49:56;61986.56;;;23.25;nan
7105;BME280;3594;42.152;24.714;2023-07-13T01:52:22;61779.66;;;20.86;nan
7105;BME280;3594;42.152;24.714;2023-07-13T01:54:47;62065.25;;;23.30;nan
7105;BME280;3594;42.152;24.714;2023-07-13T01:57:13;61980.38;;;23.43;nan
7105;BME280;3594;42.152;24.714;2023-07-13T01:59:38;61912.06;;;23.15;nan
7105;BME280;3594;42.152;24.714;2023-07-13T02:02:04;61984.19;;;23.28;nan
7105;BME280;3594;42.152;24.714;2023-07-13T02:04:29;61960.28;;;23.34;nan
7105;BME280;3594;42.152;24.714;2023-07-13T02:06:54;62006.47;;;23.43;nan
7105;BME280;3594;42.152;24.714;2023-07-13T02:09:21;62079.50;;;23.43;nan
7105;BME280;3594;42.152;24.714;2023-07-13T02:11:46;61986.09;;;23.48;nan
7105;BME280;3594;42.152;24.714;2023-07-13T02:14:11;62158.97;;;23.56;nan
7105;BME280;3594;42.152;24.714;2023-07-13T02:16:37;61952.94;;;23.40;nan
7105;BME280;3594;42.152;24.714;2023-07-13T02:19:02;61942.34;;;23.21;nan
7105;BME280;3594;42.152;24.714;2023-07-13T02:21:28;62065.63;;;23.40;nan
7105;BME280;3594;42.152;24.714;2023-07-13T02:23:54;61939.69;;;23.09;nan
7105;BME280;3594;42.152;24.714;2023-07-13T02:26:20;61968.44;;;23.32;nan
7105;BME280;3594;42.152;24.714;2023-07-13T02:28:46;61908.94;;;22.98;nan
7105;BME280;3594;42.152;24.714;2023-07-13T02:31:13;62067.66;;;23.12;nan
7105;BME280;3594;42.152;24.714;2023-07-13T02:33:39;61894.69;;;23.13;nan
7105;BME280;3594;42.152;24.714;2023-07-13T02:36:04;61893.75;;;21.92;nan
7105;BME280;3594;42.152;24.714;2023-07-13T02:38:32;61877.44;;;22.96;nan
7105;BME280;3594;42.152;24.714;2023-07-13T02:40:59;61946.50;;;23.15;nan
7105;BME280;3594;42.152;24.714;2023-07-13T02:43:25;61889.91;;;22.95;nan
7105;BME280;3594;42.152;24.714;2023-07-13T02:45:50;61997.88;;;22.96;nan
7105;BME280;3594;42.152;24.714;2023-07-13T02:48:16;62011.69;;;22.87;nan
7105;BME280;3594;42.152;24.714;2023-07-13T02:50:41;61791.88;;;22.77;nan
7105;BME280;3594;42.152;24.714;2023-07-13T02:53:07;61826.06;;;22.75;nan
7105;BME280;3594;42.152;24.714;2023-07-13T02:55:32;61896.25;;;22.96;nan
7105;BME280;3594;42.152;24.714;2023-07-13T02:57:58;61856.94;;;22.66;nan
7105;BME280;3594;42.152;24.714;2023-07-13T03:00:23;61874.00;;;22.81;nan
7105;BME280;3594;42.152;24.714;2023-07-13T03:02:49;61918.03;;;23.06;nan
7105;BME280;3594;42.152;24.714;2023-07-13T03:05:14;61992.38;;;22.82;nan
7105;BME280;3594;42.152;24.714;2023-07-13T03:07:40;61908.84;;;23.03;nan
7105;BME280;3594;42.152;24.714;2023-07-13T03:10:06;62040.22;;;23.08;nan
7105;BME280;3594;42.152;24.714;2023-07-13T03:12:32;61933.50;;;23.27;nan
7105;BME280;3594;42.152;24.714;2023-07-13T03:14:58;62108.94;;;23.34;nan
7105;BME280;3594;42.152;24.714;2023-07-13T03:17:23;62006.59;;;23.50;nan
7105;BME280;3594;42.152;24.714;2023-07-13T03:19:48;62058.41;;;24.08;nan
7105;BME280;3594;42.152;24.714;2023-07-13T03:22:18;62176.81;;;24.06;nan
7105;BME280;3594;42.152;24.714;2023-07-13T03:24:44;62222.59;;;24.38;nan
7105;BME280;3594;42.152;24.714;2023-07-13T03:27:09;62118.69;;;24.78;nan
7105;BME280;3594;42.152;24.714;2023-07-13T03:29:35;62333.97;;;25.32;nan
7105;BME280;3594;42.152;24.714;2023-07-13T03:32:00;62363.50;;;26.07;nan
7105;BME280;3594;42.152;24.714;2023-07-13T03:34:26;62368.28;;;26.64;nan
7105;BME280;3594;42.152;24.714;2023-07-13T03:36:54;62444.22;;;27.08;nan
7105;BME280;3594;42.152;24.714;2023-07-13T03:39:20;62590.13;;;27.93;nan
7105;BME280;3594;42.152;24.714;2023-07-13T03:41:45;62805.84;;;28.40;nan
7105;BME280;3594;42.152;24.714;2023-07-13T03:44:11;62879.78;;;29.10;nan
7105;BME280;3594;42.152;24.714;2023-07-13T03:46:37;62852.81;;;29.65;nan
7105;BME280;3594;42.152;24.714;2023-07-13T03:49:04;62981.06;;;30.17;nan
7105;BME280;3594;42.152;24.714;2023-07-13T03:51:30;63044.63;;;30.59;nan
7105;BME280;3594;42.152;24.714;2023-07-13T03:53:56;63118.94;;;31.20;nan
7105;BME280;3594;42.152;24.714;2023-07-13T03:56:22;63265.38;;;31.88;nan
7105;BME280;3594;42.152;24.714;2023-07-13T03:58:49;63425.25;;;32.45;nan
7105;BME280;3594;42.152;24.714;2023-07-13T04:01:16;63468.44;;;32.76;nan
7105;BME280;3594;42.152;24.714;2023-07-13T04:03:42;63493.94;;;32.94;nan
7105;BME280;3594;42.152;24.714;2023-07-13T04:06:13;63522.00;;;33.44;nan
7105;BME280;3594;42.152;24.714;2023-07-13T04:08:40;63599.59;;;33.67;nan
7105;BME280;3594;42.152;24.714;2023-07-13T04:11:06;63575.53;;;33.88;nan
7105;BME280;3594;42.152;24.714;2023-07-13T04:13:32;63633.75;;;34.48;nan
7105;BME280;3594;42.152;24.714;2023-07-13T04:15:57;63819.19;;;34.71;nan
7105;BME280;3594;42.152;24.714;2023-07-13T04:18:23;63877.38;;;34.85;nan
7105;BME280;3594;42.152;24.714;2023-07-13T04:20:49;63878.97;;;35.35;nan
7105;BME280;3594;42.152;24.714;2023-07-13T04:23:16;63947.06;;;35.57;nan
7105;BME280;3594;42.152;24.714;2023-07-13T04:25:45;63857.44;;;35.60;nan
7105;BME280;3594;42.152;24.714;2023-07-13T04:28:11;63904.56;;;35.41;nan
7105;BME280;3594;42.152;24.714;2023-07-13T04:30:37;64115.53;;;35.28;nan
7105;BME280;3594;42.152;24.714;2023-07-13T04:33:02;63828.75;;;34.93;nan
7105;BME280;3594;42.152;24.714;2023-07-13T04:35:28;63724.25;;;34.39;nan
7105;BME280;3594;42.152;24.714;2023-07-13T04:37:53;63675.88;;;34.11;nan
7105;BME280;3594;42.152;24.714;2023-07-13T04:40:19;63649.91;;;34.11;nan
7105;BME280;3594;42.152;24.714;2023-07-13T04:42:45;63586.25;;;33.84;nan
7105;BME280;3594;42.152;24.714;2023-07-13T04:45:12;63542.41;;;33.41;nan
7105;BME280;3594;42.152;24.714;2023-07-13T04:47:38;63374.25;;;32.77;nan
7105;BME280;3594;42.152;24.714;2023-07-13T04:50:05;63505.31;;;32.85;nan
7105;BME280;3594;42.152;24.714;2023-07-13T04:52:31;63474.91;;;32.77;nan
7105;BME280;3594;42.152;24.714;2023-07-13T04:54:58;63359.63;;;32.73;nan
7105;BME280;3594;42.152;24.714;2023-07-13T04:57:24;63408.69;;;32.77;nan
7105;BME280;3594;42.152;24.714;2023-07-13T04:59:49;63407.34;;;32.97;nan
7105;BME280;3594;42.152;24.714;2023-07-13T05:02:15;63534.53;;;33.24;nan
7105;BME280;3594;42.152;24.714;2023-07-13T05:04:40;63545.41;;;33.39;nan
7105;BME280;3594;42.152;24.714;2023-07-13T05:07:05;63517.38;;;33.40;nan
7105;BME280;3594;42.152;24.714;2023-07-13T05:09:31;63523.63;;;33.10;nan
7105;BME280;3594;42.152;24.714;2023-07-13T05:11:57;63506.28;;;33.23;nan
7105;BME280;3594;42.152;24.714;2023-07-13T05:14:22;63559.41;;;33.02;nan
7105;BME280;3594;42.152;24.714;2023-07-13T05:16:47;63451.94;;;33.03;nan
7105;BME280;3594;42.152;24.714;2023-07-13T05:19:13;63463.97;;;33.18;nan
7105;BME280;3594;42.152;24.714;2023-07-13T05:24:04;63593.69;;;33.67;nan
7105;BME280;3594;42.152;24.714;2023-07-13T05:26:29;63573.59;;;33.56;nan
7105;BME280;3594;42.152;24.714;2023-07-13T05:28:55;63552.13;;;33.54;nan
7105;BME280;3594;42.152;24.714;2023-07-13T05:31:20;63873.63;;;33.70;nan
7105;BME280;3594;42.152;24.714;2023-07-13T05:33:45;63612.81;;;33.95;nan
7105;BME280;3594;42.152;24.714;2023-07-13T05:36:11;63831.19;;;34.91;nan
7105;BME280;3594;42.152;24.714;2023-07-13T05:38:36;63724.06;;;34.60;nan
7105;BME280;3594;42.152;24.714;2023-07-13T05:41:02;63676.19;;;34.25;nan
7105;BME280;3594;42.152;24.714;2023-07-13T05:43:27;63676.84;;;33.93;nan
7105;BME280;3594;42.152;24.714;2023-07-13T05:45:54;63474.00;;;32.62;nan
7105;BME280;3594;42.152;24.714;2023-07-13T05:48:20;63347.75;;;32.26;nan
7105;BME280;3594;42.152;24.714;2023-07-13T05:50:45;63249.16;;;31.79;nan
7105;BME280;3594;42.152;24.714;2023-07-13T05:53:12;63321.25;;;31.58;nan
7105;BME280;3594;42.152;24.714;2023-07-13T05:55:47;63291.91;;;31.44;nan
7105;BME280;3594;42.152;24.714;2023-07-13T05:58:16;63229.72;;;31.41;nan
7105;BME280;3594;42.152;24.714;2023-07-13T06:00:42;63121.00;;;31.20;nan
7105;BME280;3594;42.152;24.714;2023-07-13T06:03:07;63101.03;;;31.32;nan
7105;BME280;3594;42.152;24.714;2023-07-13T06:05:34;63222.22;;;31.34;nan
7105;BME280;3594;42.152;24.714;2023-07-13T06:08:01;63123.66;;;30.92;nan
7105;BME280;3594;42.152;24.714;2023-07-13T06:10:26;63152.22;;;31.26;nan
7105;BME280;3594;42.152;24.714;2023-07-13T06:12:51;63212.53;;;30.93;nan
7105;BME280;3594;42.152;24.714;2023-07-13T06:15:17;63173.50;;;31.33;nan
7105;BME280;3594;42.152;24.714;2023-07-13T06:17:42;63206.44;;;31.18;nan
7105;BME280;3594;42.152;24.714;2023-07-13T06:20:09;63166.81;;;31.18;nan
7105;BME280;3594;42.152;24.714;2023-07-13T06:22:34;63108.03;;;30.83;nan
7105;BME280;3594;42.152;24.714;2023-07-13T06:25:00;63112.03;;;30.86;nan
7105;BME280;3594;42.152;24.714;2023-07-13T06:27:25;63050.78;;;30.97;nan
7105;BME280;3594;42.152;24.714;2023-07-13T06:29:50;63206.88;;;31.11;nan
7105;BME280;3594;42.152;24.714;2023-07-13T06:32:16;63233.19;;;31.44;nan
7105;BME280;3594;42.152;24.714;2023-07-13T06:34:41;63463.09;;;31.44;nan
7105;BME280;3594;42.152;24.714;2023-07-13T06:37:07;63283.53;;;31.23;nan
7105;BME280;3594;42.152;24.714;2023-07-13T06:39:32;64758.63;;;29.20;nan
7105;BME280;3594;42.152;24.714;2023-07-13T06:41:58;63240.56;;;31.55;nan
7105;BME280;3594;42.152;24.714;2023-07-13T06:44:23;63530.44;;;31.73;nan
7105;BME280;3594;42.152;24.714;2023-07-13T06:46:48;63411.56;;;31.36;nan
7105;BME280;3594;42.152;24.714;2023-07-13T06:49:14;63203.19;;;31.45;nan
7105;BME280;3594;42.152;24.714;2023-07-13T06:51:39;64690.50;;;28.93;nan
7105;BME280;3594;42.152;24.714;2023-07-13T06:54:04;63209.63;;;31.46;nan
7105;BME280;3594;42.152;24.714;2023-07-13T06:56:30;63174.34;;;31.48;nan
7105;BME280;3594;42.152;24.714;2023-07-13T06:58:55;63180.22;;;31.48;nan
7105;BME280;3594;42.152;24.714;2023-07-13T07:01:21;63242.91;;;31.69;nan
7105;BME280;3594;42.152;24.714;2023-07-13T07:03:46;63255.94;;;31.78;nan
7105;BME280;3594;42.152;24.714;2023-07-13T07:06:19;63246.28;;;31.88;nan
7105;BME280;3594;42.152;24.714;2023-07-13T07:08:45;63192.47;;;31.78;nan
7105;BME280;3594;42.152;24.714;2023-07-13T07:11:13;63326.00;;;31.97;nan
7105;BME280;3594;42.152;24.714;2023-07-13T07:13:40;63529.13;;;31.81;nan
7105;BME280;3594;42.152;24.714;2023-07-13T07:16:05;63253.53;;;31.80;nan
7105;BME280;3594;42.152;24.714;2023-07-13T07:18:32;63365.00;;;32.01;nan
7105;BME280;3594;42.152;24.714;2023-07-13T07:20:57;63355.16;;;31.81;nan
7105;BME280;3594;42.152;24.714;2023-07-13T07:23:22;63257.22;;;31.86;nan
7105;BME280;3594;42.152;24.714;2023-07-13T07:25:48;63342.19;;;32.12;nan
7105;BME280;3594;42.152;24.714;2023-07-13T07:28:15;63315.28;;;32.18;nan
7105;BME280;3594;42.152;24.714;2023-07-13T07:30:44;63328.69;;;32.37;nan
7105;BME280;3594;42.152;24.714;2023-07-13T07:33:09;63317.53;;;32.36;nan
7105;BME280;3594;42.152;24.714;2023-07-13T07:35:34;63375.63;;;32.69;nan
7105;BME280;3594;42.152;24.714;2023-07-13T07:38:00;63300.63;;;32.54;nan
7105;BME280;3594;42.152;24.714;2023-07-13T07:40:25;63472.00;;;32.74;nan
7105;BME280;3594;42.152;24.714;2023-07-13T07:42:51;63499.53;;;32.80;nan
7105;BME280;3594;42.152;24.714;2023-07-13T07:45:18;63329.44;;;32.68;nan
7105;BME280;3594;42.152;24.714;2023-07-13T07:47:43;63467.47;;;32.94;nan
7105;BME280;3594;42.152;24.714;2023-07-13T07:50:09;63392.78;;;32.77;nan
7105;BME280;3594;42.152;24.714;2023-07-13T07:52:34;63532.22;;;33.22;nan
7105;BME280;3594;42.152;24.714;2023-07-13T07:55:00;63580.78;;;33.37;nan
7105;BME280;3594;42.152;24.714;2023-07-13T07:57:26;63490.88;;;33.00;nan
7105;BME280;3594;42.152;24.714;2023-07-13T07:59:51;63461.94;;;32.91;nan
7105;BME280;3594;42.152;24.714;2023-07-13T08:02:16;63517.25;;;33.33;nan
7105;BME280;3594;42.152;24.714;2023-07-13T08:04:42;63561.69;;;33.48;nan
7105;BME280;3594;42.152;24.714;2023-07-13T08:07:08;63607.69;;;33.47;nan
7105;BME280;3594;42.152;24.714;2023-07-13T08:09:33;63522.53;;;33.60;nan
7105;BME280;3594;42.152;24.714;2023-07-13T08:11:59;63724.03;;;33.93;nan
7105;BME280;3594;42.152;24.714;2023-07-13T08:14:25;63695.13;;;34.07;nan
7105;BME280;3594;42.152;24.714;2023-07-13T08:16:50;63652.19;;;34.30;nan
7105;BME280;3594;42.152;24.714;2023-07-13T08:19:15;63713.19;;;34.18;nan
7105;BME280;3594;42.152;24.714;2023-07-13T08:21:41;63745.00;;;34.34;nan
7105;BME280;3594;42.152;24.714;2023-07-13T08:24:09;63805.84;;;34.59;nan
7105;BME280;3594;42.152;24.714;2023-07-13T08:26:34;63860.38;;;34.79;nan
7105;BME280;3594;42.152;24.714;2023-07-13T08:29:00;63898.53;;;34.29;nan
7105;BME280;3594;42.152;24.714;2023-07-13T08:31:25;63781.94;;;34.59;nan
7105;BME280;3594;42.152;24.714;2023-07-13T08:33:51;63800.63;;;34.83;nan
7105;BME280;3594;42.152;24.714;2023-07-13T08:36:16;63875.59;;;34.99;nan
7105;BME280;3594;42.152;24.714;2023-07-13T08:38:42;63830.22;;;35.09;nan
7105;BME280;3594;42.152;24.714;2023-07-13T08:41:16;63889.78;;;34.98;nan
7105;BME280;3594;42.152;24.714;2023-07-13T08:43:45;63837.06;;;34.91;nan
7105;BME280;3594;42.152;24.714;2023-07-13T08:48:58;63853.28;;;35.22;nan
7105;BME280;3594;42.152;24.714;2023-07-13T08:54:15;63925.06;;;35.50;nan
7105;BME280;3594;42.152;24.714;2023-07-13T08:56:44;63864.47;;;35.50;nan
7105;BME280;3594;42.152;24.714;2023-07-13T08:59:13;63994.59;;;35.75;nan
7105;BME280;3594;42.152;24.714;2023-07-13T09:04:48;64018.84;;;35.45;nan
7105;BME280;3594;42.152;24.714;2023-07-13T09:10:32;63988.97;;;35.61;nan
7105;BME280;3594;42.152;24.714;2023-07-13T09:13:12;64169.91;;;35.61;nan
7105;BME280;3594;42.152;24.714;2023-07-13T09:15:47;63970.66;;;35.75;nan
7105;BME280;3594;42.152;24.714;2023-07-13T09:18:23;64055.16;;;35.63;nan
7105;BME280;3594;42.152;24.714;2023-07-13T09:20:58;63998.88;;;35.98;nan
7105;BME280;3594;42.152;24.714;2023-07-13T09:23:27;64044.75;;;35.82;nan
7105;BME280;3594;42.152;24.714;2023-07-13T09:26:00;63984.00;;;35.87;nan
7105;BME280;3594;42.152;24.714;2023-07-13T09:28:29;63954.56;;;35.80;nan
7105;BME280;3594;42.152;24.714;2023-07-13T09:31:17;64189.06;;;35.99;nan
7105;BME280;3594;42.152;24.714;2023-07-13T09:33:44;63979.84;;;35.88;nan
7105;BME280;3594;42.152;24.714;2023-07-13T09:36:31;63947.22;;;35.64;nan
7105;BME280;3594;42.152;24.714;2023-07-13T09:39:03;64082.78;;;35.73;nan
7105;BME280;3594;42.152;24.714;2023-07-13T09:46:56;64099.16;;;36.27;nan
7105;BME280;3594;42.152;24.714;2023-07-13T09:49:35;64003.06;;;36.08;nan
7105;BME280;3594;42.152;24.714;2023-07-13T09:52:09;64126.91;;;36.60;nan
7105;BME280;3594;42.152;24.714;2023-07-13T09:54:36;64318.44;;;36.79;nan
7105;BME280;3594;42.152;24.714;2023-07-13T09:57:11;64238.16;;;36.81;nan
7105;BME280;3594;42.152;24.714;2023-07-13T09:59:42;64255.59;;;37.12;nan
7105;BME280;3594;42.152;24.714;2023-07-13T10:02:34;64279.81;;;37.31;nan
7105;BME280;3594;42.152;24.714;2023-07-13T10:05:05;64265.72;;;37.23;nan
7105;BME280;3594;42.152;24.714;2023-07-13T10:07:38;64125.63;;;36.64;nan
7105;BME280;3594;42.152;24.714;2023-07-13T10:10:14;64236.47;;;36.74;nan
7105;BME280;3594;42.152;24.714;2023-07-13T10:12:40;64321.13;;;36.95;nan
7105;BME280;3594;42.152;24.714;2023-07-13T10:15:14;64149.59;;;37.08;nan
7105;BME280;3594;42.152;24.714;2023-07-13T10:17:41;64257.44;;;37.09;nan
7105;BME280;3594;42.152;24.714;2023-07-13T10:20:09;64254.56;;;37.18;nan
7105;BME280;3594;42.152;24.714;2023-07-13T10:25:13;64286.34;;;37.15;nan
7105;BME280;3594;42.152;24.714;2023-07-13T10:27:39;64255.59;;;37.12;nan
7105;BME280;3594;42.152;24.714;2023-07-13T10:30:12;64212.91;;;37.12;nan
7105;BME280;3594;42.152;24.714;2023-07-13T10:32:39;64299.53;;;37.08;nan
7105;BME280;3594;42.152;24.714;2023-07-13T10:35:05;64268.97;;;37.24;nan
7105;BME280;3594;42.152;24.714;2023-07-13T10:37:57;64320.63;;;37.50;nan
7105;BME280;3594;42.152;24.714;2023-07-13T10:40:34;64366.56;;;37.50;nan
7105;BME280;3594;42.152;24.714;2023-07-13T10:43:04;64138.03;;;37.21;nan
7105;BME280;3594;42.152;24.714;2023-07-13T10:45:35;64272.69;;;37.17;nan
7105;BME280;3594;42.152;24.714;2023-07-13T10:48:01;64343.41;;;37.37;nan
7105;BME280;3594;42.152;24.714;2023-07-13T10:50:29;64309.56;;;37.40;nan
7105;BME280;3594;42.152;24.714;2023-07-13T10:58:32;64323.78;;;37.27;nan
7105;BME280;3594;42.152;24.714;2023-07-13T11:01:18;64133.38;;;36.89;nan
7105;BME280;3594;42.152;24.714;2023-07-13T11:18:52;64273.94;;;37.42;nan
7105;BME280;3594;42.152;24.714;2023-07-13T11:21:20;64327.06;;;37.39;nan
7105;BME280;3594;42.152;24.714;2023-07-13T11:24:01;64248.72;;;37.29;nan
7105;BME280;3594;42.152;24.714;2023-07-13T11:29:38;64308.13;;;37.37;nan
7105;BME280;3594;42.152;24.714;2023-07-13T11:32:25;64229.88;;;36.94;nan
7105;BME280;3594;42.152;24.714;2023-07-13T11:34:55;64194.94;;;37.08;nan
7105;BME280;3594;42.152;24.714;2023-07-13T11:37:21;64263.75;;;37.19;nan
7105;BME280;3594;42.152;24.714;2023-07-13T11:39:50;64366.44;;;37.59;nan
7105;BME280;3594;42.152;24.714;2023-07-13T11:42:18;64297.41;;;37.69;nan
7105;BME280;3594;42.152;24.714;2023-07-13T11:44:50;64418.53;;;37.79;nan
7105;BME280;3594;42.152;24.714;2023-07-13T11:47:20;64404.34;;;37.76;nan
7105;BME280;3594;42.152;24.714;2023-07-13T11:49:52;64464.78;;;37.98;nan
7105;BME280;3594;42.152;24.714;2023-07-13T11:52:23;64472.84;;;37.94;nan
7105;BME280;3594;42.152;24.714;2023-07-13T11:54:54;64283.53;;;37.52;nan
7105;BME280;3594;42.152;24.714;2023-07-13T11:59:51;64417.34;;;37.94;nan
7105;BME280;3594;42.152;24.714;2023-07-13T12:02:36;64453.22;;;38.12;nan
7105;BME280;3594;42.152;24.714;2023-07-13T12:05:03;64444.28;;;38.13;nan
7105;BME280;3594;42.152;24.714;2023-07-13T12:07:33;64532.78;;;38.27;nan
7105;BME280;3594;42.152;24.714;2023-07-13T12:10:19;64636.63;;;38.82;nan
7105;BME280;3594;42.152;24.714;2023-07-13T12:12:51;64582.75;;;38.57;nan
7105;BME280;3594;42.152;24.714;2023-07-13T12:15:18;64554.34;;;38.51;nan
7105;BME280;3594;42.152;24.714;2023-07-13T12:17:43;64619.75;;;38.79;nan
7105;BME280;3594;42.152;24.714;2023-07-13T12:20:22;64591.84;;;38.46;nan
7105;BME280;3594;42.152;24.714;2023-07-13T12:22:50;64595.31;;;38.81;nan
7105;BME280;3594;42.152;24.714;2023-07-13T12:25:16;64701.91;;;39.04;nan
7105;BME280;3594;42.152;24.714;2023-07-13T12:27:46;64620.47;;;38.71;nan
7105;BME280;3594;42.152;24.714;2023-07-13T12:30:32;64624.50;;;38.79;nan
7105;BME280;3594;42.152;24.714;2023-07-13T12:33:11;64606.56;;;38.70;nan
7105;BME280;3594;42.152;24.714;2023-07-13T12:35:44;64509.81;;;38.49;nan
7105;BME280;3594;42.152;24.714;2023-07-13T12:38:11;64746.75;;;38.55;nan
7105;BME280;3594;42.152;24.714;2023-07-13T12:40:37;64459.97;;;38.31;nan
7105;BME280;3594;42.152;24.714;2023-07-13T12:43:04;64330.69;;;36.57;nan
7105;BME280;3594;42.152;24.714;2023-07-13T12:45:32;64481.44;;;37.94;nan
7105;BME280;3594;42.152;24.714;2023-07-13T12:48:03;64503.06;;;37.97;nan
7105;BME280;3594;42.152;24.714;2023-07-13T12:50:36;64473.66;;;38.29;nan
7105;BME280;3594;42.152;24.714;2023-07-13T12:53:04;64566.72;;;38.57;nan
7105;BME280;3594;42.152;24.714;2023-07-13T12:55:41;64440.94;;;38.17;nan
7105;BME280;3594;42.152;24.714;2023-07-13T12:58:22;64541.03;;;38.30;nan
7105;BME280;3594;42.152;24.714;2023-07-13T13:00:51;64417.59;;;37.97;nan
7105;BME280;3594;42.152;24.714;2023-07-13T13:03:26;64516.56;;;38.36;nan
7105;BME280;3594;42.152;24.714;2023-07-13T13:05:58;64523.25;;;38.44;nan
7105;BME280;3594;42.152;24.714;2023-07-13T13:08:25;64623.19;;;38.55;nan
7105;BME280;3594;42.152;24.714;2023-07-13T13:10:50;64563.34;;;38.61;nan
7105;BME280;3594;42.152;24.714;2023-07-13T13:13:15;64517.25;;;38.32;nan
7105;BME280;3594;42.152;24.714;2023-07-13T13:15:41;64479.66;;;38.25;nan
7105;BME280;3594;42.152;24.714;2023-07-13T13:18:21;64493.44;;;38.35;nan
7105;BME280;3594;42.152;24.714;2023-07-13T13:20:47;64521.34;;;38.36;nan
7105;BME280;3594;42.152;24.714;2023-07-13T13:23:19;64576.22;;;38.56;nan
7105;BME280;3594;42.152;24.714;2023-07-13T13:25:46;64461.38;;;38.35;nan
7105;BME280;3594;42.152;24.714;2023-07-13T13:28:17;64534.63;;;38.24;nan
7105;BME280;3594;42.152;24.714;2023-07-13T13:30:45;64537.03;;;38.54;nan
7105;BME280;3594;42.152;24.714;2023-07-13T13:33:12;64567.31;;;38.85;nan
7105;BME280;3594;42.152;24.714;2023-07-13T13:35:38;64575.69;;;38.83;nan
7105;BME280;3594;42.152;24.714;2023-07-13T13:38:14;64670.56;;;38.96;nan
7105;BME280;3594;42.152;24.714;2023-07-13T13:40:42;64613.19;;;39.11;nan
7105;BME280;3594;42.152;24.714;2023-07-13T13:45:41;64699.84;;;39.21;nan
7105;BME280;3594;42.152;24.714;2023-07-13T13:48:16;64708.28;;;38.98;nan
7105;BME280;3594;42.152;24.714;2023-07-13T13:50:43;64634.13;;;38.73;nan
7105;BME280;3594;42.152;24.714;2023-07-13T13:53:12;64572.38;;;38.55;nan
7105;BME280;3594;42.152;24.714;2023-07-13T13:55:39;64584.16;;;38.60;nan
7105;BME280;3594;42.152;24.714;2023-07-13T13:58:05;64538.78;;;38.56;nan
7105;BME280;3594;42.152;24.714;2023-07-13T14:00:31;64569.13;;;38.54;nan
7105;BME280;3594;42.152;24.714;2023-07-13T14:02:57;64596.00;;;38.77;nan
7105;BME280;3594;42.152;24.714;2023-07-13T14:05:24;64590.84;;;38.68;nan
7105;BME280;3594;42.152;24.714;2023-07-13T14:07:53;64574.22;;;38.52;nan
7105;BME280;3594;42.152;24.714;2023-07-13T14:10:20;64514.66;;;38.44;nan
7105;BME280;3594;42.152;24.714;2023-07-13T14:12:48;64759.38;;;38.64;nan
7105;BME280;3594;42.152;24.714;2023-07-13T14:15:28;64531.44;;;38.52;nan
7105;BME280;3594;42.152;24.714;2023-07-13T14:17:54;64395.72;;;38.08;nan
7105;BME280;3594;42.152;24.714;2023-07-13T14:20:21;64429.38;;;38.02;nan
7105;BME280;3594;42.152;24.714;2023-07-13T14:22:50;64404.41;;;38.04;nan
7105;BME280;3594;42.152;24.714;2023-07-13T14:25:16;64471.06;;;38.25;nan
7105;BME280;3594;42.152;24.714;2023-07-13T14:27:43;64532.63;;;38.20;nan
7105;BME280;3594;42.152;24.714;2023-07-13T14:30:13;64589.25;;;38.58;nan